sensor_id;sensor_type;location;lat;lon;timestamp;P1;durP1;ratioP1;P2;durP2;ratioP2
21281;SDS011;10800;53.096;18.328;2023-08-24T00:03:27;4.30;;;2.70;;
21281;SDS011;10800;53.096;18.328;2023-08-24T00:08:33;7.50;;;2.97;;
21281;SDS011;10800;53.096;18.328;2023-08-24T00:13:38;10.23;;;2.60;;
21281;SDS011;10800;53.096;18.328;2023-08-24T00:18:43;4.80;;;2.37;;
21281;SDS011;10800;53.096;18.328;2023-08-24T00:23:50;9.17;;;4.13;;
21281;SDS011;10800;53.096;18.328;2023-08-24T00:28:56;9.80;;;4.53;;
21281;SDS011;10800;53.096;18.328;2023-08-24T00:34:01;8.13;;;3.43;;
21281;SDS011;10800;53.096;18.328;2023-08-24T00:39:07;5.03;;;3.17;;
21281;SDS011;10800;53.096;18.328;2023-08-24T00:44:12;10.00;;;3.13;;
21281;SDS011;10800;53.096;18.328;2023-08-24T00:49:18;10.10;;;3.40;;
21281;SDS011;10800;53.096;18.328;2023-08-24T00:54:23;4.67;;;3.47;;
21281;SDS011;10800;53.096;18.328;2023-08-24T00:59:29;7.30;;;3.83;;
21281;SDS011;10800;53.096;18.328;2023-08-24T01:04:36;6.80;;;3.27;;
21281;SDS011;10800;53.096;18.328;2023-08-24T01:09:41;6.30;;;3.37;;
21281;SDS011;10800;53.096;18.328;2023-08-24T01:14:50;7.73;;;3.57;;
21281;SDS011;10800;53.096;18.328;2023-08-24T01:20:01;6.27;;;3.33;;
21281;SDS011;10800;53.096;18.328;2023-08-24T01:25:12;10.33;;;3.43;;
21281;SDS011;10800;53.096;18.328;2023-08-24T01:30:18;8.80;;;3.90;;
21281;SDS011;10800;53.096;18.328;2023-08-24T01:35:23;8.17;;;3.70;;
21281;SDS011;10800;53.096;18.328;2023-08-24T01:40:35;10.00;;;3.53;;
21281;SDS011;10800;53.096;18.328;2023-08-24T01:45:42;9.70;;;3.53;;
21281;SDS011;10800;53.096;18.328;2023-08-24T01:50:50;13.43;;;3.50;;
21281;SDS011;10800;53.096;18.328;2023-08-24T01:55:56;4.53;;;3.03;;
21281;SDS011;10800;53.096;18.328;2023-08-24T02:01:01;3.83;;;2.90;;
21281;SDS011;10800;53.096;18.328;2023-08-24T02:06:08;9.20;;;3.53;;
21281;SDS011;10800;53.096;18.328;2023-08-24T02:11:14;8.70;;;3.50;;
21281;SDS011;10800;53.096;18.328;2023-08-24T02:16:20;13.33;;;3.47;;
21281;SDS011;10800;53.096;18.328;2023-08-24T02:21:26;7.90;;;3.30;;
21281;SDS011;10800;53.096;18.328;2023-08-24T02:26:31;8.10;;;3.23;;
21281;SDS011;10800;53.096;18.328;2023-08-24T02:31:37;3.53;;;2.83;;
21281;SDS011;10800;53.096;18.328;2023-08-24T02:36:42;7.47;;;3.37;;
21281;SDS011;10800;53.096;18.328;2023-08-24T02:41:48;5.67;;;3.50;;
21281;SDS011;10800;53.096;18.328;2023-08-24T02:46:54;5.90;;;3.20;;
21281;SDS011;10800;53.096;18.328;2023-08-24T02:52:00;7.57;;;3.30;;
21281;SDS011;10800;53.096;18.328;2023-08-24T02:57:05;4.50;;;3.10;;
21281;SDS011;10800;53.096;18.328;2023-08-24T03:02:10;4.33;;;2.73;;
21281;SDS011;10800;53.096;18.328;2023-08-24T03:07:16;6.67;;;3.30;;
21281;SDS011;10800;53.096;18.328;2023-08-24T03:12:22;4.03;;;3.17;;
21281;SDS011;10800;53.096;18.328;2023-08-24T03:17:27;6.20;;;3.50;;
21281;SDS011;10800;53.096;18.328;2023-08-24T03:22:33;10.13;;;3.73;;
21281;SDS011;10800;53.096;18.328;2023-08-24T03:27:38;6.67;;;3.47;;
21281;SDS011;10800;53.096;18.328;2023-08-24T03:32:44;8.53;;;2.83;;
21281;SDS011;10800;53.096;18.328;2023-08-24T03:37:49;10.67;;;3.90;;
21281;SDS011;10800;53.096;18.328;2023-08-24T03:42:56;5.73;;;3.67;;
21281;SDS011;10800;53.096;18.328;2023-08-24T03:48:01;4.60;;;3.60;;
21281;SDS011;10800;53.096;18.328;2023-08-24T03:53:07;5.33;;;3.53;;
21281;SDS011;10800;53.096;18.328;2023-08-24T03:58:12;6.90;;;3.63;;
21281;SDS011;10800;53.096;18.328;2023-08-24T04:03:18;8.57;;;4.07;;
21281;SDS011;10800;53.096;18.328;2023-08-24T04:08:23;9.20;;;3.93;;
21281;SDS011;10800;53.096;18.328;2023-08-24T04:13:29;5.97;;;3.70;;
21281;SDS011;10800;53.096;18.328;2023-08-24T04:18:35;7.57;;;4.10;;
21281;SDS011;10800;53.096;18.328;2023-08-24T04:23:40;8.37;;;4.20;;
21281;SDS011;10800;53.096;18.328;2023-08-24T04:28:47;13.27;;;6.40;;
21281;SDS011;10800;53.096;18.328;2023-08-24T04:33:56;9.00;;;4.27;;
21281;SDS011;10800;53.096;18.328;2023-08-24T04:39:02;21.30;;;8.13;;
21281;SDS011;10800;53.096;18.328;2023-08-24T04:44:09;10.27;;;4.90;;
21281;SDS011;10800;53.096;18.328;2023-08-24T04:49:22;11.30;;;4.13;;
21281;SDS011;10800;53.096;18.328;2023-08-24T04:54:28;7.33;;;3.87;;
21281;SDS011;10800;53.096;18.328;2023-08-24T04:59:33;6.67;;;4.03;;
21281;SDS011;10800;53.096;18.328;2023-08-24T05:04:39;5.87;;;3.30;;
21281;SDS011;10800;53.096;18.328;2023-08-24T05:09:46;6.87;;;3.57;;
21281;SDS011;10800;53.096;18.328;2023-08-24T05:14:59;7.07;;;3.33;;
21281;SDS011;10800;53.096;18.328;2023-08-24T05:20:06;10.83;;;3.43;;
21281;SDS011;10800;53.096;18.328;2023-08-24T05:25:14;8.70;;;3.70;;
21281;SDS011;10800;53.096;18.328;2023-08-24T05:30:24;6.13;;;3.27;;
21281;SDS011;10800;53.096;18.328;2023-08-24T05:35:31;5.93;;;2.97;;
21281;SDS011;10800;53.096;18.328;2023-08-24T05:40:37;5.63;;;2.77;;
21281;SDS011;10800;53.096;18.328;2023-08-24T05:45:42;3.97;;;2.03;;
21281;SDS011;10800;53.096;18.328;2023-08-24T05:50:50;6.30;;;2.17;;
21281;SDS011;10800;53.096;18.328;2023-08-24T05:55:59;4.57;;;2.17;;
21281;SDS011;10800;53.096;18.328;2023-08-24T06:01:04;7.73;;;2.30;;
21281;SDS011;10800;53.096;18.328;2023-08-24T06:06:10;8.37;;;2.83;;
21281;SDS011;10800;53.096;18.328;2023-08-24T06:11:15;10.23;;;2.30;;
21281;SDS011;10800;53.096;18.328;2023-08-24T06:16:23;3.43;;;2.13;;
21281;SDS011;10800;53.096;18.328;2023-08-24T06:21:28;4.70;;;1.93;;
21281;SDS011;10800;53.096;18.328;2023-08-24T06:26:34;2.33;;;2.00;;
21281;SDS011;10800;53.096;18.328;2023-08-24T06:31:39;2.43;;;1.73;;
21281;SDS011;10800;53.096;18.328;2023-08-24T06:36:45;2.57;;;1.73;;
21281;SDS011;10800;53.096;18.328;2023-08-24T06:41:51;3.72;;;1.57;;
21281;SDS011;10800;53.096;18.328;2023-08-24T06:46:58;5.60;;;1.47;;
21281;SDS011;10800;53.096;18.328;2023-08-24T06:52:06;5.10;;;1.90;;
21281;SDS011;10800;53.096;18.328;2023-08-24T07:02:37;3.98;;;1.95;;
21281;SDS011;10800;53.096;18.328;2023-08-24T07:12:54;4.80;;;2.05;;
21281;SDS011;10800;53.096;18.328;2023-08-24T07:18:04;1.85;;;1.20;;
21281;SDS011;10800;53.096;18.328;2023-08-24T07:23:11;3.02;;;1.92;;
21281;SDS011;10800;53.096;18.328;2023-08-24T07:28:16;2.95;;;1.50;;
21281;SDS011;10800;53.096;18.328;2023-08-24T07:33:22;2.45;;;1.10;;
21281;SDS011;10800;53.096;18.328;2023-08-24T07:38:30;7.12;;;1.40;;
21281;SDS011;10800;53.096;18.328;2023-08-24T07:43:36;3.42;;;0.93;;
21281;SDS011;10800;53.096;18.328;2023-08-24T07:48:42;1.90;;;1.40;;
21281;SDS011;10800;53.096;18.328;2023-08-24T07:53:49;1.72;;;1.20;;
21281;SDS011;10800;53.096;18.328;2023-08-24T07:58:55;1.40;;;0.70;;
21281;SDS011;10800;53.096;18.328;2023-08-24T08:04:06;1.75;;;0.80;;
21281;SDS011;10800;53.096;18.328;2023-08-24T08:09:11;1.00;;;0.82;;
21281;SDS011;10800;53.096;18.328;2023-08-24T08:14:21;3.90;;;1.15;;
21281;SDS011;10800;53.096;18.328;2023-08-24T08:19:32;1.30;;;1.07;;
21281;SDS011;10800;53.096;18.328;2023-08-24T08:24:41;0.80;;;0.80;;
21281;SDS011;10800;53.096;18.328;2023-08-24T08:29:47;1.72;;;0.72;;
21281;SDS011;10800;53.096;18.328;2023-08-24T08:34:55;3.33;;;1.12;;
21281;SDS011;10800;53.096;18.328;2023-08-24T08:40:06;3.87;;;0.70;;
21281;SDS011;10800;53.096;18.328;2023-08-24T08:45:15;2.10;;;0.90;;
21281;SDS011;10800;53.096;18.328;2023-08-24T08:50:26;1.37;;;0.80;;
21281;SDS011;10800;53.096;18.328;2023-08-24T08:55:35;3.10;;;0.85;;
21281;SDS011;10800;53.096;18.328;2023-08-24T09:00:47;2.45;;;1.37;;
21281;SDS011;10800;53.096;18.328;2023-08-24T09:05:54;1.55;;;0.80;;
21281;SDS011;10800;53.096;18.328;2023-08-24T09:11:00;2.00;;;0.88;;
21281;SDS011;10800;53.096;18.328;2023-08-24T09:16:15;1.65;;;0.72;;
21281;SDS011;10800;53.096;18.328;2023-08-24T09:21:23;1.37;;;0.90;;
21281;SDS011;10800;53.096;18.328;2023-08-24T09:26:30;1.65;;;0.82;;
21281;SDS011;10800;53.096;18.328;2023-08-24T09:31:38;2.90;;;0.53;;
21281;SDS011;10800;53.096;18.328;2023-08-24T09:37:05;1.95;;;0.80;;
21281;SDS011;10800;53.096;18.328;2023-08-24T09:42:24;1.10;;;0.88;;
21281;SDS011;10800;53.096;18.328;2023-08-24T09:47:36;0.93;;;0.82;;
21281;SDS011;10800;53.096;18.328;2023-08-24T09:52:41;1.70;;;0.70;;
21281;SDS011;10800;53.096;18.328;2023-08-24T09:57:54;5.37;;;0.60;;
21281;SDS011;10800;53.096;18.328;2023-08-24T10:03:02;1.57;;;0.90;;
21281;SDS011;10800;53.096;18.328;2023-08-24T10:08:12;1.95;;;0.80;;
21281;SDS011;10800;53.096;18.328;2023-08-24T10:14:10;1.60;;;0.60;;
21281;SDS011;10800;53.096;18.328;2023-08-24T10:18:36;1.85;;;0.50;;
21281;SDS011;10800;53.096;18.328;2023-08-24T10:23:43;3.72;;;0.80;;
21281;SDS011;10800;53.096;18.328;2023-08-24T10:28:50;2.37;;;1.00;;
21281;SDS011;10800;53.096;18.328;2023-08-24T10:33:57;6.60;;;1.52;;
21281;SDS011;10800;53.096;18.328;2023-08-24T10:39:10;1.95;;;0.80;;
21281;SDS011;10800;53.096;18.328;2023-08-24T10:44:23;1.67;;;0.82;;
21281;SDS011;10800;53.096;18.328;2023-08-24T10:49:42;2.30;;;1.10;;
21281;SDS011;10800;53.096;18.328;2023-08-24T10:54:53;1.22;;;1.00;;
21281;SDS011;10800;53.096;18.328;2023-08-24T11:15:50;3.20;;;0.85;;
21281;SDS011;10800;53.096;18.328;2023-08-24T11:21:16;1.02;;;0.80;;
21281;SDS011;10800;53.096;18.328;2023-08-24T11:26:25;1.42;;;0.70;;
21281;SDS011;10800;53.096;18.328;2023-08-24T11:31:31;8.55;;;1.00;;
21281;SDS011;10800;53.096;18.328;2023-08-24T11:36:41;3.12;;;1.10;;
21281;SDS011;10800;53.096;18.328;2023-08-24T11:47:05;4.58;;;0.82;;
21281;SDS011;10800;53.096;18.328;2023-08-24T11:52:11;1.65;;;1.10;;
21281;SDS011;10800;53.096;18.328;2023-08-24T11:57:25;2.52;;;1.10;;
21281;SDS011;10800;53.096;18.328;2023-08-24T12:02:36;2.45;;;1.00;;
21281;SDS011;10800;53.096;18.328;2023-08-24T12:07:44;6.60;;;1.42;;
21281;SDS011;10800;53.096;18.328;2023-08-24T12:12:49;2.55;;;0.90;;
21281;SDS011;10800;53.096;18.328;2023-08-24T12:17:56;2.20;;;0.90;;
21281;SDS011;10800;53.096;18.328;2023-08-24T12:23:02;1.17;;;0.85;;
21281;SDS011;10800;53.096;18.328;2023-08-24T12:28:12;1.60;;;0.80;;
21281;SDS011;10800;53.096;18.328;2023-08-24T12:33:27;2.87;;;1.12;;
21281;SDS011;10800;53.096;18.328;2023-08-24T12:38:39;1.80;;;0.90;;
21281;SDS011;10800;53.096;18.328;2023-08-24T12:43:48;1.77;;;1.00;;
21281;SDS011;10800;53.096;18.328;2023-08-24T12:48:55;2.65;;;1.00;;
21281;SDS011;10800;53.096;18.328;2023-08-24T12:54:00;0.90;;;0.90;;
21281;SDS011;10800;53.096;18.328;2023-08-24T12:59:05;1.27;;;1.10;;
21281;SDS011;10800;53.096;18.328;2023-08-24T13:04:11;2.25;;;1.22;;
21281;SDS011;10800;53.096;18.328;2023-08-24T13:09:16;2.75;;;0.72;;
21281;SDS011;10800;53.096;18.328;2023-08-24T13:14:22;3.27;;;1.57;;
21281;SDS011;10800;53.096;18.328;2023-08-24T13:36:29;1.30;;;1.00;;
21281;SDS011;10800;53.096;18.328;2023-08-24T13:41:34;2.65;;;1.00;;
21281;SDS011;10800;53.096;18.328;2023-08-24T13:46:39;2.92;;;1.22;;
21281;SDS011;10800;53.096;18.328;2023-08-24T13:51:45;1.90;;;1.17;;
21281;SDS011;10800;53.096;18.328;2023-08-24T13:56:50;1.17;;;1.07;;
21281;SDS011;10800;53.096;18.328;2023-08-24T14:01:57;5.87;;;1.12;;
21281;SDS011;10800;53.096;18.328;2023-08-24T14:07:03;3.75;;;1.25;;
21281;SDS011;10800;53.096;18.328;2023-08-24T14:12:08;3.75;;;0.98;;
21281;SDS011;10800;53.096;18.328;2023-08-24T14:17:14;2.47;;;1.10;;
21281;SDS011;10800;53.096;18.328;2023-08-24T14:22:19;1.45;;;1.07;;
21281;SDS011;10800;53.096;18.328;2023-08-24T14:27:24;2.35;;;0.90;;
21281;SDS011;10800;53.096;18.328;2023-08-24T14:37:47;1.92;;;1.12;;
21281;SDS011;10800;53.096;18.328;2023-08-24T14:48:17;4.60;;;1.12;;
21281;SDS011;10800;53.096;18.328;2023-08-24T14:53:32;1.35;;;0.80;;
21281;SDS011;10800;53.096;18.328;2023-08-24T14:58:38;2.08;;;1.00;;
21281;SDS011;10800;53.096;18.328;2023-08-24T15:03:44;1.45;;;0.85;;
21281;SDS011;10800;53.096;18.328;2023-08-24T15:08:49;4.22;;;1.15;;
21281;SDS011;10800;53.096;18.328;2023-08-24T15:13:55;1.62;;;1.10;;
21281;SDS011;10800;53.096;18.328;2023-08-24T15:19:00;4.47;;;0.85;;
21281;SDS011;10800;53.096;18.328;2023-08-24T15:24:06;4.28;;;1.12;;
21281;SDS011;10800;53.096;18.328;2023-08-24T15:29:16;4.42;;;1.17;;
21281;SDS011;10800;53.096;18.328;2023-08-24T15:34:22;2.15;;;0.98;;
21281;SDS011;10800;53.096;18.328;2023-08-24T15:39:27;1.75;;;0.90;;
21281;SDS011;10800;53.096;18.328;2023-08-24T15:44:33;4.22;;;1.00;;
21281;SDS011;10800;53.096;18.328;2023-08-24T15:49:39;0.93;;;0.80;;
21281;SDS011;10800;53.096;18.328;2023-08-24T15:54:45;6.05;;;1.10;;
21281;SDS011;10800;53.096;18.328;2023-08-24T15:59:51;2.85;;;1.10;;
21281;SDS011;10800;53.096;18.328;2023-08-24T16:04:57;3.22;;;1.40;;
21281;SDS011;10800;53.096;18.328;2023-08-24T16:10:02;2.75;;;1.65;;
21281;SDS011;10800;53.096;18.328;2023-08-24T16:15:09;15.23;;;2.17;;
21281;SDS011;10800;53.096;18.328;2023-08-24T16:20:15;11.85;;;1.30;;
21281;SDS011;10800;53.096;18.328;2023-08-24T16:25:23;4.50;;;1.30;;
21281;SDS011;10800;53.096;18.328;2023-08-24T16:35:43;3.70;;;1.17;;
21281;SDS011;10800;53.096;18.328;2023-08-24T16:40:49;2.60;;;1.10;;
21281;SDS011;10800;53.096;18.328;2023-08-24T16:45:55;3.52;;;1.10;;
21281;SDS011;10800;53.096;18.328;2023-08-24T16:51:00;1.25;;;1.12;;
21281;SDS011;10800;53.096;18.328;2023-08-24T16:56:06;8.55;;;1.80;;
21281;SDS011;10800;53.096;18.328;2023-08-24T17:01:12;7.50;;;1.70;;
21281;SDS011;10800;53.096;18.328;2023-08-24T17:06:20;3.55;;;1.65;;
21281;SDS011;10800;53.096;18.328;2023-08-24T17:11:25;4.50;;;1.17;;
21281;SDS011;10800;53.096;18.328;2023-08-24T17:16:30;9.38;;;1.98;;
21281;SDS011;10800;53.096;18.328;2023-08-24T17:21:37;4.17;;;1.92;;
21281;SDS011;10800;53.096;18.328;2023-08-24T17:26:42;5.72;;;1.72;;
21281;SDS011;10800;53.096;18.328;2023-08-24T17:31:48;6.65;;;1.62;;
21281;SDS011;10800;53.096;18.328;2023-08-24T17:36:54;4.08;;;1.70;;
21281;SDS011;10800;53.096;18.328;2023-08-24T17:42:02;13.75;;;2.67;;
21281;SDS011;10800;53.096;18.328;2023-08-24T17:47:09;10.00;;;2.95;;
21281;SDS011;10800;53.096;18.328;2023-08-24T17:52:15;8.28;;;3.33;;
21281;SDS011;10800;53.096;18.328;2023-08-24T17:57:22;36.30;;;11.40;;
21281;SDS011;10800;53.096;18.328;2023-08-24T18:02:32;24.92;;;7.40;;
21281;SDS011;10800;53.096;18.328;2023-08-24T18:07:38;13.53;;;4.55;;
21281;SDS011;10800;53.096;18.328;2023-08-24T18:12:43;9.25;;;4.28;;
21281;SDS011;10800;53.096;18.328;2023-08-24T18:17:53;16.05;;;5.22;;
21281;SDS011;10800;53.096;18.328;2023-08-24T18:23:04;9.95;;;4.00;;
21281;SDS011;10800;53.096;18.328;2023-08-24T18:28:10;6.35;;;2.65;;
21281;SDS011;10800;53.096;18.328;2023-08-24T18:33:17;15.80;;;4.03;;
21281;SDS011;10800;53.096;18.328;2023-08-24T18:38:22;9.08;;;3.27;;
21281;SDS011;10800;53.096;18.328;2023-08-24T18:43:28;9.00;;;3.60;;
21281;SDS011;10800;53.096;18.328;2023-08-24T18:48:33;13.93;;;5.08;;
21281;SDS011;10800;53.096;18.328;2023-08-24T18:53:39;14.83;;;4.55;;
21281;SDS011;10800;53.096;18.328;2023-08-24T18:58:44;9.18;;;3.52;;
21281;SDS011;10800;53.096;18.328;2023-08-24T19:03:49;15.80;;;4.58;;
21281;SDS011;10800;53.096;18.328;2023-08-24T19:08:54;16.27;;;6.80;;
21281;SDS011;10800;53.096;18.328;2023-08-24T19:14:00;29.98;;;8.23;;
21281;SDS011;10800;53.096;18.328;2023-08-24T19:19:06;33.67;;;11.20;;
21281;SDS011;10800;53.096;18.328;2023-08-24T19:24:11;44.98;;;14.03;;
21281;SDS011;10800;53.096;18.328;2023-08-24T19:29:16;37.80;;;11.57;;
21281;SDS011;10800;53.096;18.328;2023-08-24T19:34:22;24.53;;;8.90;;
21281;SDS011;10800;53.096;18.328;2023-08-24T19:39:27;19.92;;;7.95;;
21281;SDS011;10800;53.096;18.328;2023-08-24T19:44:33;13.55;;;6.65;;
21281;SDS011;10800;53.096;18.328;2023-08-24T19:49:39;21.40;;;7.40;;
21281;SDS011;10800;53.096;18.328;2023-08-24T19:54:44;20.17;;;5.22;;
21281;SDS011;10800;53.096;18.328;2023-08-24T19:59:49;27.75;;;8.68;;
21281;SDS011;10800;53.096;18.328;2023-08-24T20:04:54;16.03;;;7.53;;
21281;SDS011;10800;53.096;18.328;2023-08-24T20:09:59;23.17;;;6.77;;
21281;SDS011;10800;53.096;18.328;2023-08-24T20:15:07;16.67;;;5.50;;
21281;SDS011;10800;53.096;18.328;2023-08-24T20:20:13;15.58;;;5.87;;
21281;SDS011;10800;53.096;18.328;2023-08-24T20:25:25;18.93;;;5.83;;
21281;SDS011;10800;53.096;18.328;2023-08-24T20:30:30;14.55;;;5.70;;
21281;SDS011;10800;53.096;18.328;2023-08-24T20:35:35;18.27;;;5.40;;
21281;SDS011;10800;53.096;18.328;2023-08-24T20:40:40;22.10;;;8.20;;
21281;SDS011;10800;53.096;18.328;2023-08-24T20:45:46;25.30;;;10.30;;
21281;SDS011;10800;53.096;18.328;2023-08-24T20:50:55;30.73;;;7.30;;
21281;SDS011;10800;53.096;18.328;2023-08-24T20:56:01;24.37;;;7.80;;
21281;SDS011;10800;53.096;18.328;2023-08-24T21:01:07;17.52;;;6.40;;
21281;SDS011;10800;53.096;18.328;2023-08-24T21:06:12;19.23;;;6.57;;
21281;SDS011;10800;53.096;18.328;2023-08-24T21:11:17;18.83;;;5.80;;
21281;SDS011;10800;53.096;18.328;2023-08-24T21:16:23;12.07;;;5.60;;
21281;SDS011;10800;53.096;18.328;2023-08-24T21:21:28;12.17;;;5.60;;
21281;SDS011;10800;53.096;18.328;2023-08-24T21:26:34;16.37;;;5.63;;
21281;SDS011;10800;53.096;18.328;2023-08-24T21:31:40;13.07;;;4.47;;
21281;SDS011;10800;53.096;18.328;2023-08-24T21:36:45;17.07;;;5.03;;
21281;SDS011;10800;53.096;18.328;2023-08-24T21:41:50;11.03;;;4.93;;
21281;SDS011;10800;53.096;18.328;2023-08-24T21:46:56;11.60;;;4.80;;
21281;SDS011;10800;53.096;18.328;2023-08-24T21:52:01;13.07;;;4.70;;
21281;SDS011;10800;53.096;18.328;2023-08-24T21:57:07;25.90;;;5.67;;
21281;SDS011;10800;53.096;18.328;2023-08-24T22:02:12;13.43;;;5.70;;
21281;SDS011;10800;53.096;18.328;2023-08-24T22:07:17;13.00;;;4.90;;
21281;SDS011;10800;53.096;18.328;2023-08-24T22:12:23;10.40;;;5.43;;
21281;SDS011;10800;53.096;18.328;2023-08-24T22:17:28;11.27;;;5.20;;
21281;SDS011;10800;53.096;18.328;2023-08-24T22:22:33;15.10;;;5.60;;
21281;SDS011;10800;53.096;18.328;2023-08-24T22:27:39;12.90;;;5.70;;
21281;SDS011;10800;53.096;18.328;2023-08-24T22:32:45;12.13;;;5.27;;
21281;SDS011;10800;53.096;18.328;2023-08-24T22:37:50;14.67;;;5.13;;
21281;SDS011;10800;53.096;18.328;2023-08-24T22:42:56;19.03;;;6.50;;
21281;SDS011;10800;53.096;18.328;2023-08-24T22:48:03;15.57;;;5.30;;
21281;SDS011;10800;53.096;18.328;2023-08-24T22:53:09;14.53;;;5.70;;
21281;SDS011;10800;53.096;18.328;2023-08-24T22:58:15;14.53;;;5.43;;
21281;SDS011;10800;53.096;18.328;2023-08-24T23:03:20;11.17;;;5.47;;
21281;SDS011;10800;53.096;18.328;2023-08-24T23:08:26;11.03;;;5.53;;
21281;SDS011;10800;53.096;18.328;2023-08-24T23:13:31;10.73;;;4.77;;
21281;SDS011;10800;53.096;18.328;2023-08-24T23:18:37;12.37;;;5.70;;
21281;SDS011;10800;53.096;18.328;2023-08-24T23:23:42;9.67;;;5.33;;
21281;SDS011;10800;53.096;18.328;2023-08-24T23:28:48;10.00;;;5.53;;
21281;SDS011;10800;53.096;18.328;2023-08-24T23:33:53;12.07;;;5.90;;
21281;SDS011;10800;53.096;18.328;2023-08-24T23:38:59;13.73;;;5.33;;
21281;SDS011;10800;53.096;18.328;2023-08-24T23:44:04;13.57;;;5.93;;
21281;SDS011;10800;53.096;18.328;2023-08-24T23:49:10;14.03;;;5.97;;
21281;SDS011;10800;53.096;18.328;2023-08-24T23:54:15;12.47;;;5.87;;
21281;SDS011;10800;53.096;18.328;2023-08-24T23:59:23;11.80;;;5.33;;
